Time;durP1;ratioP1;P1;durP2;ratioP2;P2;SDS_P1;SDS_P2;PMS_P1;PMS_P2;Temp;Humidity;BMP_temperature;BMP_pressure;BME280_temperature;BME280_humidity;BME280_pressure;Samples;Min_cycle;Max_cycle;Signal;HPM_P1;HPM_P2
2022/09/24 00:00:50;;;;;;;7.60;4.10;;;;;;;12.50;90.37;101234.78;5097132;28;20063;-92
2022/09/24 00:03:18;;;;;;;5.93;3.50;;;;;;;12.49;90.26;101233.09;5097126;28;20036;-92
2022/09/24 00:05:44;;;;;;;7.07;4.05;;;;;;;12.49;91.05;101237.41;5096850;28;20044;-92
2022/09/24 00:08:22;;;;;;;5.97;3.57;;;;;;;12.48;90.03;101236.56;5096478;28;20078;-91
2022/09/24 00:10:48;;;;;;;5.45;3.20;;;;;;;12.49;90.25;101238.28;5096348;28;20056;-91
2022/09/24 00:13:16;;;;;;;4.30;3.00;;;;;;;12.47;90.11;101229.63;5096862;28;20474;-91
2022/09/24 00:15:52;;;;;;;5.53;3.38;;;;;;;12.45;91.02;101225.31;5097036;28;20095;-91
2022/09/24 00:18:20;;;;;;;4.90;2.93;;;;;;;12.44;90.51;101226.25;5096273;28;20024;-92
2022/09/24 00:20:46;;;;;;;4.40;2.90;;;;;;;12.43;90.12;101227.13;5096380;28;20274;-93
2022/09/24 00:23:12;;;;;;;4.47;2.95;;;;;;;12.43;90.88;101227.97;5096714;28;20024;-92
2022/09/24 00:28:33;;;;;;;5.43;3.50;;;;;;;12.40;90.98;101221.97;5096736;28;20043;-92
2022/09/24 00:31:05;;;;;;;7.03;3.97;;;;;;;12.36;91.55;101215.94;5096566;28;20017;-91
2022/09/24 00:33:33;;;;;;;6.72;3.90;;;;;;;12.35;91.32;101217.69;5096680;28;20024;-92
2022/09/24 00:36:01;;;;;;;6.53;3.72;;;;;;;12.35;91.17;101214.22;5096177;28;20107;-92
2022/09/24 00:38:30;;;;;;;5.75;3.50;;;;;;;12.35;92.24;101204.66;5096469;28;20032;-91
2022/09/24 00:40:55;;;;;;;5.93;3.60;;;;;;;12.32;90.66;101207.34;5096310;28;20040;-91
2022/09/24 00:43:33;;;;;;;7.70;4.20;;;;;;;12.33;91.85;101210.78;5096175;28;20112;-91
2022/09/24 00:46:16;;;;;;;5.97;3.40;;;;;;;12.33;91.02;101210.78;5096078;28;20031;-91
2022/09/24 00:48:43;;;;;;;7.28;4.00;;;;;;;12.32;90.75;101212.53;5095652;28;20111;-92
2022/09/24 00:51:12;;;;;;;8.40;4.50;;;;;;;12.30;92.10;101210.81;5095477;28;20482;-91
2022/09/24 00:53:40;;;;;;;7.13;4.00;;;;;;;12.28;91.77;101197.84;5096061;28;20020;-91
2022/09/24 00:56:11;;;;;;;5.97;3.60;;;;;;;12.28;92.02;101192.66;5095159;28;20024;-90
2022/09/24 00:58:38;;;;;;;7.53;3.92;;;;;;;12.29;91.91;101194.38;5096230;28;20026;-90
2022/09/24 01:01:06;;;;;;;;;;;;;;;12.29;93.10;101191.75;5096200;28;20098;-91
2022/09/24 01:03:34;;;;;;;6.10;3.65;;;;;;;12.28;91.75;101177.03;5095952;28;19927;-91
2022/09/24 01:06:00;;;;;;;6.93;3.58;;;;;;;12.26;93.04;101177.94;5095452;28;20044;-91
2022/09/24 01:08:25;;;;;;;4.33;3.03;;;;;;;12.28;92.15;101182.25;5095012;28;20502;-91
2022/09/24 01:11:09;;;;;;;6.73;3.83;;;;;;;12.26;92.37;101173.59;5095666;28;20031;-91
2022/09/24 01:13:58;;;;;;;7.85;4.18;;;;;;;12.26;93.94;101184.00;5095568;28;20115;-92
2022/09/24 01:16:33;;;;;;;12.20;5.90;;;;;;;12.22;94.61;101165.88;5095984;28;20032;-91
2022/09/24 01:19:23;;;;;;;9.20;5.15;;;;;;;12.23;92.48;101170.19;5095092;28;20487;-91
2022/09/24 01:22:27;;;;;;;7.28;4.18;;;;;;;12.23;92.34;101163.22;5095306;28;20062;-91
2022/09/24 01:25:14;;;;;;;6.40;3.90;;;;;;;12.23;93.91;101162.38;5094274;28;20082;-91
2022/09/24 01:27:59;;;;;;;9.07;4.78;;;;;;;12.22;93.36;101158.06;5095529;28;20028;-88
2022/09/24 01:30:31;;;;;;;7.97;4.43;;;;;;;12.20;93.63;101148.53;5095395;28;20032;-91
2022/09/24 01:33:12;;;;;;;9.57;4.70;;;;;;;12.19;93.20;101162.44;5095392;28;20028;-90
2022/09/24 01:35:41;;;;;;;6.53;3.97;;;;;;;12.19;93.85;101151.19;5095272;28;20400;-92
2022/09/24 01:38:20;;;;;;;6.43;3.90;;;;;;;12.19;93.06;101149.41;5094934;28;20028;-91
2022/09/24 01:40:48;;;;;;;7.78;4.35;;;;;;;12.19;93.85;101151.19;5095643;28;20063;-91
2022/09/24 01:43:16;;;;;;;6.05;3.80;;;;;;;12.19;92.62;101146.81;5094497;28;20020;-91
2022/09/24 01:45:42;;;;;;;5.25;3.40;;;;;;;12.19;92.74;101149.41;5095194;28;20032;-91
2022/09/24 01:48:07;;;;;;;5.53;3.30;;;;;;;12.19;92.31;101146.81;5094951;28;20073;-91
2022/09/24 01:50:40;;;;;;;3.93;2.70;;;;;;;12.21;93.12;101146.81;5094949;28;20110;-92
2022/09/24 01:53:11;;;;;;;5.15;3.17;;;;;;;12.21;92.54;101146.81;5094434;28;20464;-91
2022/09/24 01:55:42;;;;;;;5.55;3.13;;;;;;;12.22;92.72;101139.84;5094597;28;20092;-91
2022/09/24 01:58:10;;;;;;;4.47;2.88;;;;;;;12.20;92.17;101138.13;5094690;28;20081;-91
2022/09/24 02:00:41;;;;;;;4.80;3.00;;;;;;;12.23;91.91;101136.34;5094667;28;20027;-91
2022/09/24 02:03:14;;;;;;;3.65;2.50;;;;;;;12.23;91.72;101134.59;5074203;28;20040;-92
2022/09/24 02:06:09;;;;;;;3.60;2.58;;;;;;;12.26;91.93;101131.09;5089651;28;20514;-91
2022/09/24 02:08:45;;;;;;;5.07;3.03;;;;;;;12.25;93.36;101139.81;5094920;28;20056;-92
2022/09/24 02:11:20;;;;;;;5.90;3.55;;;;;;;12.23;91.54;101136.34;5094429;28;20024;-92
2022/09/24 02:13:48;;;;;;;6.95;3.50;;;;;;;12.23;92.54;101133.75;5094727;28;20020;-91
2022/09/24 02:16:19;;;;;;;5.70;3.33;;;;;;;12.20;92.73;101132.91;5094538;28;20038;-91
2022/09/24 02:18:49;;;;;;;6.13;3.40;;;;;;;12.20;93.79;101130.31;5094318;28;20024;-91
2022/09/24 02:21:17;;;;;;;8.57;4.53;;;;;;;12.16;93.77;101130.41;5093912;28;20028;-92
2022/09/24 02:23:59;;;;;;;9.40;4.50;;;;;;;12.16;94.33;101131.25;5094606;28;20023;-92
2022/09/24 02:26:25;;;;;;;8.52;4.60;;;;;;;12.14;94.01;101130.44;5094738;28;20103;-91
2022/09/24 02:28:51;;;;;;;7.87;4.40;;;;;;;12.14;93.81;101129.56;5093633;28;20055;-91
2022/09/24 02:31:26;;;;;;;8.70;4.55;;;;;;;12.13;93.63;101125.25;5093974;28;20023;-91
2022/09/24 02:36:37;;;;;;;7.15;4.03;;;;;;;12.10;93.51;101120.13;5094147;28;20526;-91
2022/09/24 02:39:03;;;;;;;6.97;3.90;;;;;;;12.12;94.54;101120.91;5093764;28;20024;-91
2022/09/24 02:41:30;;;;;;;8.43;4.60;;;;;;;12.10;95.23;101120.97;5093827;28;20115;-91
2022/09/24 02:43:55;;;;;;;9.45;4.88;;;;;;;12.09;93.87;101119.25;5093811;28;20024;-91
2022/09/24 02:46:20;;;;;;;9.30;5.13;;;;;;;12.09;94.77;101115.78;5093990;28;20038;-91
2022/09/24 02:48:46;;;;;;;9.43;4.70;;;;;;;12.07;94.09;101115.81;5094378;28;20028;-89
2022/09/24 02:51:11;;;;;;;8.47;4.53;;;;;;;12.09;94.77;101118.41;5093841;28;20020;-91
2022/09/24 02:53:36;;;;;;;8.67;4.17;;;;;;;12.08;94.60;101112.31;5093944;28;20471;-91
2022/09/24 02:56:02;;;;;;;6.73;4.07;;;;;;;12.09;93.99;101116.63;5093572;28;20016;-91
2022/09/24 02:58:29;;;;;;;11.55;5.53;;;;;;;12.08;94.95;101108.88;5094163;28;20027;-92
2022/09/24 03:00:55;;;;;;;10.63;5.05;;;;;;;12.05;94.33;101108.03;5093465;28;20443;-91
2022/09/24 03:03:21;;;;;;;12.73;6.05;;;;;;;12.05;94.81;101109.75;5094009;28;20411;-90
2022/09/24 03:05:47;;;;;;;11.73;5.63;;;;;;;12.05;95.18;101105.44;5093945;28;20043;-91
2022/09/24 03:08:12;;;;;;;11.67;5.73;;;;;;;12.05;95.81;101108.03;5093267;28;20032;-92
2022/09/24 03:10:38;;;;;;;11.00;5.40;;;;;;;12.04;94.57;101103.72;5093778;28;20108;-91
2022/09/24 03:13:03;;;;;;;14.40;7.03;;;;;;;12.05;96.09;101108.03;5095653;28;20056;-91
2022/09/24 03:15:29;;;;;;;11.77;5.73;;;;;;;12.04;94.78;101103.72;5097828;28;20032;-91
2022/09/24 03:17:54;;;;;;;10.83;5.47;;;;;;;12.06;95.12;101098.47;5097700;28;20115;-91
2022/09/24 03:20:20;;;;;;;11.97;5.77;;;;;;;12.04;95.41;101103.72;5097528;28;20069;-92
2022/09/24 03:22:50;;;;;;;12.03;6.07;;;;;;;12.05;95.15;101100.22;5097941;28;20032;-93
2022/09/24 03:25:16;;;;;;;12.38;6.40;;;;;;;12.04;95.62;101101.13;5098438;28;20027;-92
2022/09/24 03:27:41;;;;;;;12.53;6.40;;;;;;;12.03;95.55;101093.34;5097498;28;20027;-93
2022/09/24 03:32:51;;;;;;;14.27;6.88;;;;;;;12.05;96.43;101091.56;5097793;28;20058;-91
2022/09/24 03:35:16;;;;;;;17.23;8.23;;;;;;;12.03;96.24;101094.19;5097132;28;20534;-93
2022/09/24 03:37:42;;;;;;;20.77;11.20;;;;;;;12.02;97.64;101091.63;5097805;28;20027;-92
2022/09/24 03:40:08;;;;;;;17.60;9.00;;;;;;;12.03;96.33;101090.75;5097478;28;20020;-93
2022/09/24 03:42:33;;;;;;;18.55;9.50;;;;;;;12.02;97.41;101092.47;5097692;28;20035;-92
2022/09/24 03:44:59;;;;;;;16.13;8.43;;;;;;;12.02;97.12;101084.66;5097337;28;20016;-91
2022/09/24 03:47:24;;;;;;;17.30;8.93;;;;;;;12.03;96.84;101093.34;5097199;28;20530;-92
2022/09/24 03:49:50;;;;;;;18.47;9.53;;;;;;;12.01;97.93;101088.16;5092663;28;20069;-93
2022/09/24 03:52:16;;;;;;;18.03;8.67;;;;;;;12.00;97.56;101085.59;5078900;28;20028;-92
2022/09/24 03:54:41;;;;;;;17.80;9.33;;;;;;;12.00;98.18;101082.97;5097065;28;20030;-91
2022/09/24 03:57:06;;;;;;;15.87;8.03;;;;;;;11.97;97.38;101070.88;5097071;28;20028;-92
2022/09/24 03:59:31;;;;;;;13.97;7.17;;;;;;;11.99;97.81;101076.91;5097466;28;20379;-92
2022/09/24 04:02:11;;;;;;;14.20;7.10;;;;;;;12.00;97.71;101072.59;5096507;28;20024;-91
2022/09/24 04:04:37;;;;;;;17.77;8.63;;;;;;;11.99;98.11;101073.47;5097145;28;20020;-92
2022/09/24 04:07:03;;;;;;;15.90;8.07;;;;;;;11.96;98.29;101066.53;5096379;28;20484;-94
2022/09/24 04:09:28;;;;;;;18.80;9.93;;;;;;;11.97;98.90;101070.88;5097051;28;20484;-93
2022/09/24 04:11:53;;;;;;;18.97;10.20;;;;;;;11.97;97.62;101070.00;5096754;28;20031;-93
2022/09/24 04:14:28;;;;;;;17.03;8.40;;;;;;;11.95;97.87;101064.81;5097074;28;20101;-93
2022/09/24 04:16:53;;;;;;;13.90;7.30;;;;;;;11.97;97.86;101064.78;5096675;28;20036;-92
2022/09/24 04:19:19;;;;;;;13.83;6.87;;;;;;;11.95;97.32;101059.63;5096954;28;20107;-94
2022/09/24 04:21:44;;;;;;;16.47;8.57;;;;;;;11.97;99.30;101059.59;5095926;28;20063;-94
2022/09/24 04:24:10;;;;;;;15.60;7.90;;;;;;;11.98;98.47;101061.34;5096541;28;20024;-93
2022/09/24 04:26:49;;;;;;;17.80;9.03;;;;;;;11.97;98.87;101057.00;5096354;28;20028;-94
2022/09/24 04:29:15;;;;;;;16.65;8.30;;;;;;;11.94;98.71;101050.09;5096719;28;20027;-93
2022/09/24 04:31:40;;;;;;;13.60;7.17;;;;;;;11.97;97.40;101049.19;5096339;28;20028;-94
2022/09/24 04:34:21;;;;;;;11.30;6.00;;;;;;;11.98;97.44;101050.94;5096388;28;20375;-93
2022/09/24 04:36:46;;;;;;;10.60;5.53;;;;;;;11.99;97.48;101057.84;5095985;28;20020;-92
2022/09/24 04:39:11;;;;;;;12.00;6.17;;;;;;;11.98;97.46;101054.41;5095712;28;20381;-93
2022/09/24 04:41:38;;;;;;;11.53;5.57;;;;;;;12.00;96.90;101067.38;5096046;28;20023;-94
2022/09/24 04:44:22;;;;;;;14.70;7.10;;;;;;;11.99;97.40;101058.69;5096169;28;20075;-92
2022/09/24 04:46:47;;;;;;;11.75;6.05;;;;;;;12.01;97.57;101053.50;5096621;28;20048;-94
2022/09/24 04:49:13;;;;;;;13.77;6.67;;;;;;;11.99;97.99;101061.31;5096144;28;20051;-94
2022/09/24 04:51:50;;;;;;;10.83;5.53;;;;;;;12.01;97.12;101062.13;5060446;28;20040;-93
2022/09/24 04:54:17;;;;;;;10.38;5.63;;;;;;;12.00;97.65;101055.22;5096141;28;20032;-92
2022/09/24 04:56:42;;;;;;;13.50;6.60;;;;;;;11.99;97.79;101058.69;5095894;28;20476;-92
2022/09/24 04:59:22;;;;;;;13.70;6.47;;;;;;;11.98;98.50;101058.75;5095980;28;20035;-92
2022/09/24 05:01:47;;;;;;;15.85;7.72;;;;;;;11.99;98.98;101055.25;5096186;28;20020;-92
2022/09/24 05:04:12;;;;;;;16.00;7.97;;;;;;;11.99;99.23;101057.84;5095760;28;20349;-91
2022/09/24 05:06:38;;;;;;;15.00;7.37;;;;;;;11.94;97.75;101052.72;5095211;28;20523;-92
2022/09/24 05:09:22;;;;;;;15.27;7.50;;;;;;;11.96;98.90;101047.47;5095507;28;20052;-90
2022/09/24 05:11:47;;;;;;;17.75;7.45;;;;;;;11.94;98.74;101059.63;5095064;28;20468;-89
2022/09/24 05:14:12;;;;;;;15.03;7.67;;;;;;;11.95;100.00;101057.03;5094734;28;20028;-90
2022/09/24 05:16:53;;;;;;;15.93;7.93;;;;;;;11.95;98.97;101058.75;5095291;28;20020;-89
2022/09/24 05:19:18;;;;;;;15.63;7.40;;;;;;;11.93;98.58;101055.34;5095743;28;20427;-90
2022/09/24 05:21:45;;;;;;;17.03;8.70;;;;;;;11.94;99.73;101057.91;5095317;28;20020;-90
2022/09/24 05:24:32;;;;;;;17.20;8.55;;;;;;;11.93;99.89;101057.94;5094870;28;20024;-89
2022/09/24 05:29:59;;;;;;;14.75;7.43;;;;;;;11.95;99.57;101063.94;5032478;28;20034;-89
2022/09/24 05:32:40;;;;;;;;;;;;;;;11.96;98.36;101066.53;5082847;28;20047;-89
2022/09/24 05:35:08;;;;;;;17.00;8.45;;;;;;;11.94;99.99;101059.63;5094408;28;20006;-90
2022/09/24 05:37:54;;;;;;;15.35;7.80;;;;;;;11.93;100.00;101063.16;5094487;28;20020;-89
2022/09/24 05:43:04;;;;;;;15.00;7.32;;;;;;;11.90;99.87;101056.22;5094369;28;20043;-89
2022/09/24 05:45:30;;;;;;;16.00;7.80;;;;;;;11.91;99.66;101068.34;5095061;28;20020;-90
2022/09/24 05:47:55;;;;;;;16.13;8.00;;;;;;;11.90;100.00;101058.84;5094726;28;20021;-88
2022/09/24 05:50:20;;;;;;;16.27;7.77;;;;;;;11.89;100.00;101065.78;5094364;28;20028;-89
2022/09/24 05:52:46;;;;;;;14.17;7.07;;;;;;;11.90;99.35;101070.13;5094900;28;20024;-88
2022/09/24 05:55:23;;;;;;;12.10;6.00;;;;;;;11.92;99.43;101071.84;5093231;28;20431;-87
2022/09/24 05:57:49;;;;;;;11.52;6.05;;;;;;;11.94;100.00;101068.31;5094521;28;20036;-88
2022/09/24 06:00:36;;;;;;;15.13;7.43;;;;;;;11.94;100.00;101072.63;5094434;28;20138;-88
2022/09/24 06:03:28;;;;;;;14.02;7.03;;;;;;;11.93;100.00;101074.41;5092647;28;20051;-87
2022/09/24 06:08:40;;;;;;;14.10;7.05;;;;;;;11.90;100.00;101075.31;5094925;28;20472;-92
2022/09/24 06:11:07;;;;;;;12.37;6.43;;;;;;;11.89;100.00;101081.41;5094129;28;20035;-92
2022/09/24 06:13:49;;;;;;;13.70;6.65;;;;;;;11.90;100.00;101079.63;5058795;28;20031;-92
2022/09/24 06:16:15;;;;;;;11.15;5.93;;;;;;;11.90;99.68;101075.31;5094613;28;20032;-91
2022/09/24 06:18:42;;;;;;;13.27;6.60;;;;;;;11.95;100.00;101079.56;5094721;28;20031;-90
2022/09/24 06:21:22;;;;;;;13.98;6.72;;;;;;;11.93;100.00;101083.94;5093977;28;20434;-91
2022/09/24 06:23:47;;;;;;;10.80;5.75;;;;;;;11.93;99.88;101090.00;5094325;28;20031;-92
2022/09/24 06:26:13;;;;;;;9.80;5.30;;;;;;;11.94;100.00;101091.72;5094788;28;20079;-89
2022/09/24 06:28:54;;;;;;;8.97;4.77;;;;;;;11.96;99.35;101084.75;5094082;28;20024;-89
2022/09/24 06:31:19;;;;;;;7.88;4.40;;;;;;;11.96;99.51;101076.06;5093899;28;20020;-90
2022/09/24 06:33:45;;;;;;;12.93;6.50;;;;;;;11.95;100.00;101080.44;5093782;28;20120;-90
2022/09/24 06:36:22;;;;;;;12.37;6.20;;;;;;;11.95;100.00;101092.56;5094073;28;20036;-90
2022/09/24 06:38:51;;;;;;;9.82;5.10;;;;;;;11.97;100.00;101093.41;5093836;28;20028;-91
2022/09/24 06:41:26;;;;;;;9.80;5.22;;;;;;;11.97;99.04;101089.06;5093923;28;20031;-91
2022/09/24 06:43:54;;;;;;;9.10;4.90;;;;;;;11.99;99.33;101102.91;5093571;28;20024;-90
2022/09/24 06:46:21;;;;;;;15.15;7.10;;;;;;;11.97;100.00;101091.69;5093301;28;20044;-91
2022/09/24 06:49:02;;;;;;;13.40;6.43;;;;;;;11.97;100.00;101094.28;5093225;28;20028;-91
2022/09/24 06:51:27;;;;;;;15.52;7.35;;;;;;;11.95;100.00;101093.44;5093678;28;20031;-90
2022/09/24 06:53:53;;;;;;;16.97;8.47;;;;;;;11.95;100.00;101101.25;5093654;28;20024;-86
2022/09/24 06:56:18;;;;;;;14.07;7.30;;;;;;;11.96;100.00;101104.69;5093210;28;20035;-90
2022/09/24 06:58:44;;;;;;;15.37;7.57;;;;;;;11.95;100.00;101101.25;5092854;28;20028;-89
2022/09/24 07:01:25;;;;;;;13.17;6.50;;;;;;;11.98;100.00;101105.56;5093362;28;20028;-87
2022/09/24 07:03:50;;;;;;;12.35;5.80;;;;;;;11.99;100.00;101108.13;5093063;28;20477;-87
2022/09/24 07:06:15;;;;;;;9.40;5.00;;;;;;;12.00;100.00;101099.44;5088458;28;20102;-87
2022/09/24 07:08:41;;;;;;;10.27;5.50;;;;;;;12.03;100.00;101103.75;5093491;28;20036;-87
2022/09/24 07:11:07;;;;;;;12.90;6.10;;;;;;;12.04;100.00;101105.47;5092905;28;20380;-89
2022/09/24 07:13:51;;;;;;;12.65;6.30;;;;;;;12.01;100.00;101110.72;5091925;28;20020;-83
2022/09/24 07:16:25;;;;;;;9.40;4.97;;;;;;;12.03;100.00;101115.00;5107760;28;20055;-82
2022/09/24 07:18:51;;;;;;;8.93;4.50;;;;;;;12.07;100.00;101115.81;5110219;28;20023;-82
2022/09/24 07:21:16;;;;;;;7.03;4.17;;;;;;;12.10;100.00;101118.34;5092268;28;20085;-88
2022/09/24 07:23:42;;;;;;;12.17;6.03;;;;;;;12.08;100.00;101120.13;5092757;28;20023;-88
2022/09/24 07:26:07;;;;;;;12.73;6.37;;;;;;;12.07;100.00;101120.16;5092643;28;20020;-88
2022/09/24 07:28:45;;;;;;;11.60;6.20;;;;;;;12.07;100.00;101118.41;5092559;28;20106;-88
2022/09/24 07:31:13;;;;;;;11.50;6.25;;;;;;;12.08;100.00;101121.88;5096090;28;20418;-87
2022/09/24 07:33:39;;;;;;;14.48;7.22;;;;;;;12.11;100.00;101124.41;5112573;28;20015;-87
2022/09/24 07:36:08;;;;;;;13.30;6.77;;;;;;;12.11;100.00;101120.06;5113037;28;20028;-91
2022/09/24 07:38:35;;;;;;;9.93;5.47;;;;;;;12.12;100.00;101123.53;5113650;28;20061;-90
2022/09/24 07:41:02;;;;;;;9.63;5.18;;;;;;;12.13;99.90;101125.25;5114855;28;20030;-90
2022/09/24 07:43:28;;;;;;;9.55;4.90;;;;;;;12.15;100.00;101134.75;5105364;28;20103;-90
2022/09/24 07:45:54;;;;;;;8.33;4.47;;;;;;;12.17;99.46;101138.16;5093312;28;20064;-92
2022/09/24 07:48:20;;;;;;;10.27;5.00;;;;;;;12.17;100.00;101132.97;5093183;28;20020;-91
2022/09/24 07:50:45;;;;;;;10.67;5.23;;;;;;;12.16;100.00;101130.41;5093654;28;20024;-92
2022/09/24 07:53:12;;;;;;;9.67;5.17;;;;;;;12.17;99.85;101137.31;5092921;28;20491;-87
2022/09/24 07:55:39;;;;;;;8.18;4.55;;;;;;;12.18;99.65;101139.88;5091945;28;20024;-84
2022/09/24 07:58:06;;;;;;;9.23;5.22;;;;;;;12.20;100.00;101140.72;5093148;28;20396;-89
2022/09/24 08:00:32;;;;;;;9.48;5.10;;;;;;;12.23;99.64;101147.63;5097120;28;20185;-89
2022/09/24 08:02:57;;;;;;;7.47;4.33;;;;;;;12.25;99.74;101142.41;5096348;28;20058;-88
2022/09/24 08:05:23;;;;;;;6.77;4.10;;;;;;;12.27;99.69;101144.09;5096329;28;20028;-89
2022/09/24 08:07:55;;;;;;;5.70;3.70;;;;;;;12.28;99.42;101148.41;5096079;28;20071;-88
2022/09/24 08:10:22;;;;;;;6.25;3.75;;;;;;;12.30;98.87;101154.44;5096500;28;20380;-90
2022/09/24 08:12:47;;;;;;;8.27;4.50;;;;;;;12.30;99.35;101150.97;5096678;28;20146;-90
2022/09/24 08:15:14;;;;;;;7.53;4.10;;;;;;;12.32;99.13;101151.81;5096340;28;20527;-90
2022/09/24 08:17:40;;;;;;;6.00;3.53;;;;;;;12.35;99.02;101154.38;5095651;28;20028;-90
2022/09/24 08:20:05;;;;;;;8.53;4.57;;;;;;;12.36;100.00;101156.09;5096186;28;20024;-90
2022/09/24 08:22:32;;;;;;;7.53;4.13;;;;;;;12.35;99.47;101157.81;5096163;28;20024;-89
2022/09/24 08:24:57;;;;;;;6.15;3.70;;;;;;;12.38;99.10;101163.84;5095669;28;20027;-89
2022/09/24 08:27:24;;;;;;;5.27;3.60;;;;;;;12.39;98.83;101165.56;5096136;28;20020;-88
2022/09/24 08:29:50;;;;;;;4.20;2.85;;;;;;;12.43;98.92;101168.09;5094401;28;20028;-86
2022/09/24 08:32:16;;;;;;;6.82;3.78;;;;;;;12.44;99.49;101161.16;5095579;28;20038;-89
2022/09/24 08:34:42;;;;;;;12.00;6.15;;;;;;;12.43;100.00;101162.88;5095685;28;20099;-88
2022/09/24 08:37:07;;;;;;;11.23;6.10;;;;;;;12.42;99.65;101163.78;5095408;28;20457;-91
2022/09/24 08:39:32;;;;;;;10.07;5.63;;;;;;;12.44;100.00;101162.00;5096990;28;20024;-89
2022/09/24 08:42:04;;;;;;;11.83;6.10;;;;;;;12.45;100.00;101168.94;5099548;28;20023;-95
2022/09/24 08:47:36;;;;;;;;;;;;;;;12.49;100.00;101165.41;5097004;28;20034;-88
2022/09/24 08:50:24;;;;;;;9.73;5.25;;;;;;;12.51;99.79;101170.56;5096034;28;19912;-90
2022/09/24 08:53:18;;;;;;;9.27;4.95;;;;;;;12.52;99.35;101170.53;5094739;28;20032;-87
2022/09/24 08:55:57;;;;;;;7.72;4.50;;;;;;;12.55;100.00;101168.75;5095721;28;20032;-90
2022/09/24 08:58:41;;;;;;;7.75;4.72;;;;;;;12.55;99.23;101177.44;5094707;28;20043;-88
2022/09/24 09:01:18;;;;;;;11.13;5.72;;;;;;;12.56;100.00;101180.88;5095823;28;20086;-94
2022/09/24 09:04:04;;;;;;;14.48;7.13;;;;;;;12.55;100.00;101179.16;5095437;28;20114;-87
2022/09/24 09:07:16;;;;;;;12.90;6.40;;;;;;;12.57;100.00;101180.00;5094401;28;20052;-92
2022/09/24 09:09:47;;;;;;;11.60;6.00;;;;;;;12.59;99.51;101183.44;5061225;28;20536;-96
2022/09/24 09:12:19;;;;;;;13.25;6.70;;;;;;;12.60;100.00;101180.81;5095674;28;20047;-94
2022/09/24 09:14:53;;;;;;;14.07;6.40;;;;;;;12.61;100.00;101185.13;5095658;28;20107;-94
2022/09/24 09:17:34;;;;;;;14.98;7.63;;;;;;;12.61;100.00;101187.72;5095562;28;20038;-94
2022/09/24 09:20:05;;;;;;;14.15;6.50;;;;;;;12.62;100.00;101186.84;5095780;28;20028;-95
2022/09/24 09:22:36;;;;;;;14.15;7.45;;;;;;;12.63;100.00;101188.56;5095945;28;20093;-96
2022/09/24 09:25:16;;;;;;;15.15;7.55;;;;;;;12.67;100.00;101191.97;5095126;28;20020;-95
2022/09/24 09:27:41;;;;;;;16.02;7.78;;;;;;;12.69;100.00;101195.41;5095479;28;20031;-96
2022/09/24 09:30:13;;;;;;;14.87;7.50;;;;;;;12.71;100.00;101200.56;5095366;28;20048;-95
2022/09/24 09:32:59;;;;;;;11.05;5.85;;;;;;;12.74;99.69;101193.56;5096655;28;20046;-83
2022/09/24 09:35:46;;;;;;;12.02;6.05;;;;;;;12.78;100.00;101197.84;5095803;28;20028;-90
2022/09/24 09:38:36;;;;;;;10.00;5.40;;;;;;;12.81;99.62;101195.19;5096721;28;20379;-96
2022/09/24 09:41:04;;;;;;;10.98;5.70;;;;;;;12.83;99.54;101195.97;5095112;28;20024;-94
2022/09/24 09:43:29;;;;;;;15.77;7.80;;;;;;;12.86;100.00;101186.41;5095292;28;20456;-93
2022/09/24 09:46:04;;;;;;;12.53;6.20;;;;;;;12.89;99.87;101191.56;5094858;28;20094;-93
2022/09/24 09:48:46;;;;;;;12.40;6.32;;;;;;;12.90;100.00;101195.88;5095013;28;20031;-95
2022/09/24 09:51:20;;;;;;;11.57;6.18;;;;;;;12.92;99.98;101192.34;5095025;28;20023;-96
2022/09/24 09:54:02;;;;;;;8.35;4.95;;;;;;;12.95;99.47;101196.63;5095010;28;20472;-94
2022/09/24 09:56:34;;;;;;;12.13;6.32;;;;;;;12.98;100.00;101193.97;5094987;28;20020;-93
2022/09/24 09:59:11;;;;;;;11.32;5.47;;;;;;;13.00;99.33;101193.97;5094512;28;20020;-93
2022/09/24 10:01:42;;;;;;;10.77;5.80;;;;;;;13.00;99.26;101196.56;5094608;28;20024;-93
2022/09/24 10:04:42;;;;;;;9.27;5.28;;;;;;;13.02;98.54;101200.84;5090325;28;20024;-95
2022/09/24 10:07:13;;;;;;;6.03;4.00;;;;;;;13.08;98.75;101197.28;5093089;28;20115;-95
2022/09/24 10:09:40;;;;;;;7.90;4.60;;;;;;;13.11;98.74;101199.81;5094067;28;20085;-95
2022/09/24 10:12:25;;;;;;;10.95;5.50;;;;;;;13.13;99.01;101198.91;5094455;28;20020;-88
2022/09/24 10:15:03;;;;;;;8.02;4.40;;;;;;;13.17;98.86;101194.47;5093827;28;20027;-90
2022/09/24 10:17:39;;;;;;;5.88;3.65;;;;;;;13.21;99.15;101196.13;5093556;28;20039;-90
2022/09/24 10:20:16;;;;;;;9.82;5.13;;;;;;;13.22;98.88;101194.38;5093010;28;20602;-90
2022/09/24 10:22:50;;;;;;;7.95;4.60;;;;;;;13.25;99.09;101192.56;5093376;28;20031;-90
2022/09/24 10:25:38;;;;;;;9.07;4.75;;;;;;;13.26;97.94;101193.44;5093716;28;20031;-90
2022/09/24 10:31:04;;;;;;;6.85;3.78;;;;;;;13.36;97.87;101191.47;5093349;28;20074;-89
2022/09/24 10:33:40;;;;;;;5.65;3.38;;;;;;;13.43;98.61;101190.50;5093956;28;20016;-90
2022/09/24 10:36:13;;;;;;;7.68;4.13;;;;;;;13.44;98.09;101189.63;5093924;28;20023;-90
2022/09/24 10:38:38;;;;;;;6.15;3.90;;;;;;;13.49;97.51;101192.13;5093083;28;20089;-91
2022/09/24 10:41:16;;;;;;;9.57;4.63;;;;;;;13.53;98.41;101196.34;5093617;28;20028;-90
2022/09/24 10:43:50;;;;;;;6.95;3.83;;;;;;;13.55;97.59;101199.78;5093431;28;20491;-90
2022/09/24 10:46:21;;;;;;;5.47;3.50;;;;;;;13.58;97.45;101199.72;5093358;28;20522;-90
2022/09/24 10:49:04;;;;;;;6.57;3.67;;;;;;;13.61;97.72;101204.88;5073684;28;20056;-88
2022/09/24 10:51:44;;;;;;;5.20;3.20;;;;;;;13.65;97.40;101206.50;5072353;28;20059;-88
2022/09/24 10:54:17;;;;;;;5.20;3.10;;;;;;;13.69;97.59;101210.78;5072990;28;20035;-86
2022/09/24 10:56:50;;;;;;;6.32;3.75;;;;;;;13.69;97.26;101202.09;5082914;28;20427;-91
2022/09/24 10:59:26;;;;;;;5.50;3.42;;;;;;;13.71;97.24;101203.78;5093052;28;20473;-90
2022/09/24 11:01:58;;;;;;;5.88;3.25;;;;;;;13.74;96.79;101203.69;5093569;28;20039;-91
2022/09/24 11:04:55;;;;;;;5.25;3.40;;;;;;;13.80;96.96;101204.47;5093600;28;20055;-89
2022/09/24 11:07:38;;;;;;;6.20;3.55;;;;;;;13.78;97.26;101209.72;5093553;28;20044;-85
2022/09/24 11:10:30;;;;;;;5.78;3.45;;;;;;;13.79;96.86;101207.97;5093040;28;20036;-89
2022/09/24 11:13:19;;;;;;;12.02;6.15;;;;;;;13.79;97.03;101211.41;5092528;28;20456;-89
2022/09/24 11:16:08;;;;;;;16.77;8.85;;;;;;;13.76;96.75;101216.72;5093238;28;20036;-89
2022/09/24 11:18:37;;;;;;;14.32;7.07;;;;;;;13.74;95.91;101208.06;5092744;28;20381;-89
2022/09/24 11:21:17;;;;;;;13.07;6.35;;;;;;;13.76;96.46;101214.13;5093215;28;20028;-89
2022/09/24 11:23:53;;;;;;;13.25;6.82;;;;;;;13.79;96.56;101215.78;5093850;28;20032;-90
2022/09/24 11:26:38;;;;;;;10.15;5.70;;;;;;;13.83;96.64;101222.66;5092724;28;20111;-89
2022/09/24 11:29:47;;;;;;;12.13;5.95;;;;;;;13.85;96.76;101226.94;5093371;28;20047;-90
2022/09/24 11:32:44;;;;;;;8.65;4.50;;;;;;;13.85;96.01;101224.34;5093371;28;20095;-90
2022/09/24 11:35:12;;;;;;;;;;;;;;;13.89;96.03;101215.56;5097449;28;20519;-90
2022/09/24 11:38:02;;;;;;;6.55;3.85;;;;;;;13.97;97.00;101211.91;5097171;28;19912;-89
2022/09/24 11:40:44;;;;;;;11.63;5.63;;;;;;;14.00;96.07;101211.84;5096515;28;20059;-89
2022/09/24 11:43:32;;;;;;;8.05;4.80;;;;;;;14.03;96.64;101215.22;5096668;28;20134;-89
2022/09/24 11:46:21;;;;;;;7.72;4.43;;;;;;;14.10;96.07;101213.31;5096581;28;20043;-89
2022/09/24 11:49:08;;;;;;;7.75;4.55;;;;;;;14.17;95.95;101214.88;5096078;28;20494;-89
2022/09/24 11:52:03;;;;;;;6.63;3.90;;;;;;;14.23;95.58;101211.25;5094992;28;20123;-88
2022/09/24 11:54:35;;;;;;;6.75;3.90;;;;;;;14.31;95.89;101208.47;5064688;28;20040;-88
2022/09/24 11:57:30;;;;;;;6.07;3.60;;;;;;;14.35;95.21;101208.34;5096484;28;20035;-89
2022/09/24 11:59:58;;;;;;;10.63;5.57;;;;;;;14.34;94.28;101211.00;5096370;28;20024;-88
2022/09/24 12:02:47;;;;;;;8.70;4.70;;;;;;;14.36;94.68;101212.69;5095759;28;20388;-89
2022/09/24 12:05:26;;;;;;;7.40;4.13;;;;;;;14.41;95.09;101209.94;5095497;28;20028;-89